sensor_id;sensor_type;location;lat;lon;timestamp;temperature;humidity
29803;DHT22;16702;50.898;4.662;2023-04-07T00:02:26;10.80;99.90
29803;DHT22;16702;50.898;4.662;2023-04-07T00:04:57;10.70;99.90
29803;DHT22;16702;50.898;4.662;2023-04-07T00:07:29;10.70;99.90
29803;DHT22;16702;50.898;4.662;2023-04-07T00:10:11;10.70;99.90
29803;DHT22;16702;50.898;4.662;2023-04-07T00:12:41;10.70;99.90
29803;DHT22;16702;50.898;4.662;2023-04-07T00:15:15;10.70;99.90
29803;DHT22;16702;50.898;4.662;2023-04-07T00:17:45;10.70;99.90
29803;DHT22;16702;50.898;4.662;2023-04-07T00:20:15;10.60;99.90
29803;DHT22;16702;50.898;4.662;2023-04-07T00:22:46;10.70;99.90
29803;DHT22;16702;50.898;4.662;2023-04-07T00:25:16;10.70;99.90
29803;DHT22;16702;50.898;4.662;2023-04-07T00:27:47;10.70;99.90
29803;DHT22;16702;50.898;4.662;2023-04-07T00:30:20;10.60;99.90
29803;DHT22;16702;50.898;4.662;2023-04-07T00:32:50;10.70;99.90
29803;DHT22;16702;50.898;4.662;2023-04-07T00:35:21;10.70;99.90
29803;DHT22;16702;50.898;4.662;2023-04-07T00:37:51;10.70;99.90
29803;DHT22;16702;50.898;4.662;2023-04-07T00:40:22;10.60;99.90
29803;DHT22;16702;50.898;4.662;2023-04-07T00:42:52;10.60;99.90
29803;DHT22;16702;50.898;4.662;2023-04-07T00:45:25;10.60;99.90
29803;DHT22;16702;50.898;4.662;2023-04-07T00:47:56;10.60;99.90
29803;DHT22;16702;50.898;4.662;2023-04-07T00:50:27;10.60;99.90
29803;DHT22;16702;50.898;4.662;2023-04-07T00:52:58;10.60;99.90
29803;DHT22;16702;50.898;4.662;2023-04-07T00:55:29;10.60;99.90
29803;DHT22;16702;50.898;4.662;2023-04-07T00:57:59;10.60;99.90
29803;DHT22;16702;50.898;4.662;2023-04-07T01:00:41;10.60;99.90
29803;DHT22;16702;50.898;4.662;2023-04-07T01:03:17;10.50;99.90
29803;DHT22;16702;50.898;4.662;2023-04-07T01:05:53;10.60;99.90
29803;DHT22;16702;50.898;4.662;2023-04-07T01:08:41;10.60;99.90
29803;DHT22;16702;50.898;4.662;2023-04-07T01:11:23;10.50;99.90
29803;DHT22;16702;50.898;4.662;2023-04-07T01:13:57;10.50;99.90
29803;DHT22;16702;50.898;4.662;2023-04-07T01:16:45;10.50;99.90
29803;DHT22;16702;50.898;4.662;2023-04-07T01:19:31;10.40;99.90
29803;DHT22;16702;50.898;4.662;2023-04-07T01:22:08;10.40;99.90
29803;DHT22;16702;50.898;4.662;2023-04-07T01:24:52;10.50;99.90
29803;DHT22;16702;50.898;4.662;2023-04-07T01:27:35;10.50;99.90
29803;DHT22;16702;50.898;4.662;2023-04-07T01:30:11;10.40;99.90
29803;DHT22;16702;50.898;4.662;2023-04-07T01:32:46;10.50;99.90
29803;DHT22;16702;50.898;4.662;2023-04-07T01:35:21;10.40;99.90
29803;DHT22;16702;50.898;4.662;2023-04-07T01:37:53;10.40;99.90
29803;DHT22;16702;50.898;4.662;2023-04-07T01:40:24;10.30;99.90
29803;DHT22;16702;50.898;4.662;2023-04-07T01:42:56;10.30;99.90
29803;DHT22;16702;50.898;4.662;2023-04-07T01:45:30;10.40;99.90
29803;DHT22;16702;50.898;4.662;2023-04-07T01:48:05;10.40;99.90
29803;DHT22;16702;50.898;4.662;2023-04-07T01:50:37;10.40;99.90
29803;DHT22;16702;50.898;4.662;2023-04-07T01:53:08;10.40;99.90
29803;DHT22;16702;50.898;4.662;2023-04-07T01:55:40;10.50;99.90
29803;DHT22;16702;50.898;4.662;2023-04-07T01:58:12;10.40;99.90
29803;DHT22;16702;50.898;4.662;2023-04-07T02:00:45;10.30;99.90
29803;DHT22;16702;50.898;4.662;2023-04-07T02:03:23;10.30;99.90
29803;DHT22;16702;50.898;4.662;2023-04-07T02:06:03;10.30;99.90
29803;DHT22;16702;50.898;4.662;2023-04-07T02:08:35;10.30;99.90
29803;DHT22;16702;50.898;4.662;2023-04-07T02:11:09;10.30;99.90
29803;DHT22;16702;50.898;4.662;2023-04-07T02:13:41;10.30;99.90
29803;DHT22;16702;50.898;4.662;2023-04-07T02:16:16;10.20;99.90
29803;DHT22;16702;50.898;4.662;2023-04-07T02:18:47;10.20;99.90
29803;DHT22;16702;50.898;4.662;2023-04-07T02:21:20;10.20;99.90
29803;DHT22;16702;50.898;4.662;2023-04-07T02:23:51;10.20;99.90
29803;DHT22;16702;50.898;4.662;2023-04-07T02:26:22;10.20;99.90
29803;DHT22;16702;50.898;4.662;2023-04-07T02:28:52;10.20;99.90
29803;DHT22;16702;50.898;4.662;2023-04-07T02:31:25;10.10;99.90
29803;DHT22;16702;50.898;4.662;2023-04-07T02:33:56;10.10;99.90
29803;DHT22;16702;50.898;4.662;2023-04-07T02:36:26;10.10;99.90
29803;DHT22;16702;50.898;4.662;2023-04-07T02:38:58;10.10;99.90
29803;DHT22;16702;50.898;4.662;2023-04-07T02:41:28;10.10;99.90
29803;DHT22;16702;50.898;4.662;2023-04-07T02:43:59;10.20;99.90
29803;DHT22;16702;50.898;4.662;2023-04-07T02:46:32;10.10;99.90
29803;DHT22;16702;50.898;4.662;2023-04-07T02:49:02;10.10;99.90
29803;DHT22;16702;50.898;4.662;2023-04-07T02:51:33;10.10;99.90
29803;DHT22;16702;50.898;4.662;2023-04-07T02:54:03;10.10;99.90
29803;DHT22;16702;50.898;4.662;2023-04-07T02:56:34;10.10;99.90
29803;DHT22;16702;50.898;4.662;2023-04-07T02:59:04;10.10;99.90
29803;DHT22;16702;50.898;4.662;2023-04-07T03:01:42;10.10;99.90
29803;DHT22;16702;50.898;4.662;2023-04-07T03:04:13;10.10;99.90
29803;DHT22;16702;50.898;4.662;2023-04-07T03:06:44;10.10;99.90
29803;DHT22;16702;50.898;4.662;2023-04-07T03:09:15;10.10;99.90
29803;DHT22;16702;50.898;4.662;2023-04-07T03:11:45;10.10;99.90
29803;DHT22;16702;50.898;4.662;2023-04-07T03:14:16;10.10;99.90
29803;DHT22;16702;50.898;4.662;2023-04-07T03:16:51;10.10;99.90
29803;DHT22;16702;50.898;4.662;2023-04-07T03:19:23;10.10;99.90
29803;DHT22;16702;50.898;4.662;2023-04-07T03:21:54;10.10;99.90
29803;DHT22;16702;50.898;4.662;2023-04-07T03:24:24;10.10;99.90
29803;DHT22;16702;50.898;4.662;2023-04-07T03:26:55;10.10;99.90
29803;DHT22;16702;50.898;4.662;2023-04-07T03:29:40;10.10;99.90
29803;DHT22;16702;50.898;4.662;2023-04-07T03:32:15;10.00;99.90
29803;DHT22;16702;50.898;4.662;2023-04-07T03:34:46;10.10;99.90
29803;DHT22;16702;50.898;4.662;2023-04-07T03:37:17;10.10;99.90
29803;DHT22;16702;50.898;4.662;2023-04-07T03:39:48;10.10;99.90
29803;DHT22;16702;50.898;4.662;2023-04-07T03:42:28;10.10;99.90
29803;DHT22;16702;50.898;4.662;2023-04-07T03:45:06;10.00;99.90
29803;DHT22;16702;50.898;4.662;2023-04-07T03:47:44;10.00;99.90
29803;DHT22;16702;50.898;4.662;2023-04-07T03:50:15;10.10;99.90
29803;DHT22;16702;50.898;4.662;2023-04-07T03:52:57;10.10;99.90
29803;DHT22;16702;50.898;4.662;2023-04-07T03:55:30;10.00;99.90
29803;DHT22;16702;50.898;4.662;2023-04-07T03:58:08;10.10;99.90
29803;DHT22;16702;50.898;4.662;2023-04-07T04:00:39;10.10;99.90
29803;DHT22;16702;50.898;4.662;2023-04-07T04:03:14;10.00;99.90
29803;DHT22;16702;50.898;4.662;2023-04-07T04:05:59;10.00;99.90
29803;DHT22;16702;50.898;4.662;2023-04-07T04:08:31;10.00;99.90
29803;DHT22;16702;50.898;4.662;2023-04-07T04:11:02;10.00;99.90
29803;DHT22;16702;50.898;4.662;2023-04-07T04:13:40;10.00;99.90
29803;DHT22;16702;50.898;4.662;2023-04-07T04:16:11;10.10;99.90
29803;DHT22;16702;50.898;4.662;2023-04-07T04:18:46;10.10;99.90
29803;DHT22;16702;50.898;4.662;2023-04-07T04:21:16;10.00;99.90
29803;DHT22;16702;50.898;4.662;2023-04-07T04:23:47;10.00;99.90
29803;DHT22;16702;50.898;4.662;2023-04-07T04:26:18;10.00;99.90
29803;DHT22;16702;50.898;4.662;2023-04-07T04:28:56;10.00;99.90
29803;DHT22;16702;50.898;4.662;2023-04-07T04:31:26;10.00;99.90
29803;DHT22;16702;50.898;4.662;2023-04-07T04:34:00;10.00;99.90
29803;DHT22;16702;50.898;4.662;2023-04-07T04:36:31;10.00;99.90
29803;DHT22;16702;50.898;4.662;2023-04-07T04:39:05;10.00;99.90
29803;DHT22;16702;50.898;4.662;2023-04-07T04:41:37;10.00;99.90
29803;DHT22;16702;50.898;4.662;2023-04-07T04:44:09;10.00;99.90
29803;DHT22;16702;50.898;4.662;2023-04-07T04:46:41;10.00;99.90
29803;DHT22;16702;50.898;4.662;2023-04-07T04:49:15;10.10;99.90
29803;DHT22;16702;50.898;4.662;2023-04-07T04:51:48;10.00;99.90
29803;DHT22;16702;50.898;4.662;2023-04-07T04:54:19;10.00;99.90
29803;DHT22;16702;50.898;4.662;2023-04-07T04:56:49;10.00;99.90
29803;DHT22;16702;50.898;4.662;2023-04-07T04:59:20;10.00;99.90
29803;DHT22;16702;50.898;4.662;2023-04-07T05:01:55;10.10;99.90
29803;DHT22;16702;50.898;4.662;2023-04-07T05:04:29;10.00;99.90
29803;DHT22;16702;50.898;4.662;2023-04-07T05:07:16;10.00;99.90
29803;DHT22;16702;50.898;4.662;2023-04-07T05:09:46;10.00;99.90
29803;DHT22;16702;50.898;4.662;2023-04-07T05:12:19;10.00;99.90
29803;DHT22;16702;50.898;4.662;2023-04-07T05:14:56;9.90;99.90
29803;DHT22;16702;50.898;4.662;2023-04-07T05:17:28;9.90;99.90
29803;DHT22;16702;50.898;4.662;2023-04-07T05:20:04;9.90;99.90
29803;DHT22;16702;50.898;4.662;2023-04-07T05:22:37;9.90;99.90
29803;DHT22;16702;50.898;4.662;2023-04-07T05:25:12;9.90;99.90
29803;DHT22;16702;50.898;4.662;2023-04-07T05:27:44;9.80;99.90
29803;DHT22;16702;50.898;4.662;2023-04-07T05:30:16;9.80;99.90
29803;DHT22;16702;50.898;4.662;2023-04-07T05:32:46;9.80;99.90
29803;DHT22;16702;50.898;4.662;2023-04-07T05:35:29;9.80;99.90
29803;DHT22;16702;50.898;4.662;2023-04-07T05:37:59;9.80;99.90
29803;DHT22;16702;50.898;4.662;2023-04-07T05:40:29;9.80;99.90
29803;DHT22;16702;50.898;4.662;2023-04-07T05:43:04;9.80;99.90
29803;DHT22;16702;50.898;4.662;2023-04-07T05:45:34;9.80;99.90
29803;DHT22;16702;50.898;4.662;2023-04-07T05:48:06;9.80;99.90
29803;DHT22;16702;50.898;4.662;2023-04-07T05:50:44;9.80;99.90
29803;DHT22;16702;50.898;4.662;2023-04-07T05:53:17;9.80;99.90
29803;DHT22;16702;50.898;4.662;2023-04-07T05:55:47;9.70;99.90
29803;DHT22;16702;50.898;4.662;2023-04-07T05:58:38;9.80;99.90
29803;DHT22;16702;50.898;4.662;2023-04-07T06:01:10;9.80;99.90
29803;DHT22;16702;50.898;4.662;2023-04-07T06:03:41;9.80;99.90
29803;DHT22;16702;50.898;4.662;2023-04-07T06:06:21;9.80;99.90
29803;DHT22;16702;50.898;4.662;2023-04-07T06:08:52;9.80;99.90
29803;DHT22;16702;50.898;4.662;2023-04-07T06:11:24;9.80;99.90
29803;DHT22;16702;50.898;4.662;2023-04-07T06:13:58;9.80;99.90
29803;DHT22;16702;50.898;4.662;2023-04-07T06:16:28;9.80;99.90
29803;DHT22;16702;50.898;4.662;2023-04-07T06:19:00;9.80;99.90
29803;DHT22;16702;50.898;4.662;2023-04-07T06:21:33;9.80;99.90
29803;DHT22;16702;50.898;4.662;2023-04-07T06:24:05;9.80;99.90
29803;DHT22;16702;50.898;4.662;2023-04-07T06:26:35;9.80;99.90
29803;DHT22;16702;50.898;4.662;2023-04-07T06:29:06;9.80;99.90
29803;DHT22;16702;50.898;4.662;2023-04-07T06:31:37;9.90;99.90
29803;DHT22;16702;50.898;4.662;2023-04-07T06:34:07;9.80;99.90
29803;DHT22;16702;50.898;4.662;2023-04-07T06:36:40;9.80;99.90
29803;DHT22;16702;50.898;4.662;2023-04-07T06:39:12;9.90;99.90
29803;DHT22;16702;50.898;4.662;2023-04-07T06:41:43;9.90;99.90
29803;DHT22;16702;50.898;4.662;2023-04-07T06:44:13;9.90;99.90
29803;DHT22;16702;50.898;4.662;2023-04-07T06:46:43;9.80;99.90
29803;DHT22;16702;50.898;4.662;2023-04-07T06:49:16;9.80;99.90
29803;DHT22;16702;50.898;4.662;2023-04-07T06:51:49;9.90;99.90
29803;DHT22;16702;50.898;4.662;2023-04-07T06:54:20;10.00;99.90
29803;DHT22;16702;50.898;4.662;2023-04-07T06:56:50;9.90;99.90
29803;DHT22;16702;50.898;4.662;2023-04-07T06:59:21;9.90;99.90
29803;DHT22;16702;50.898;4.662;2023-04-07T07:01:51;9.90;99.90
29803;DHT22;16702;50.898;4.662;2023-04-07T07:04:22;9.90;99.90
29803;DHT22;16702;50.898;4.662;2023-04-07T07:06:55;9.90;99.90
29803;DHT22;16702;50.898;4.662;2023-04-07T07:09:25;9.90;99.90
29803;DHT22;16702;50.898;4.662;2023-04-07T07:11:56;9.90;99.90
29803;DHT22;16702;50.898;4.662;2023-04-07T07:14:30;9.90;99.90
29803;DHT22;16702;50.898;4.662;2023-04-07T07:17:00;10.00;99.90
29803;DHT22;16702;50.898;4.662;2023-04-07T07:19:31;10.00;99.90
29803;DHT22;16702;50.898;4.662;2023-04-07T07:22:04;9.90;99.90
29803;DHT22;16702;50.898;4.662;2023-04-07T07:24:34;9.90;99.90
29803;DHT22;16702;50.898;4.662;2023-04-07T07:27:05;9.90;99.90
29803;DHT22;16702;50.898;4.662;2023-04-07T07:29:35;9.90;99.90
29803;DHT22;16702;50.898;4.662;2023-04-07T07:32:05;10.10;99.90
29803;DHT22;16702;50.898;4.662;2023-04-07T07:34:36;10.00;99.90
29803;DHT22;16702;50.898;4.662;2023-04-07T07:37:09;10.00;99.90
29803;DHT22;16702;50.898;4.662;2023-04-07T07:39:40;10.00;99.90
29803;DHT22;16702;50.898;4.662;2023-04-07T07:42:10;10.00;99.90
29803;DHT22;16702;50.898;4.662;2023-04-07T07:44:41;10.10;99.90
29803;DHT22;16702;50.898;4.662;2023-04-07T07:47:11;10.00;99.90
29803;DHT22;16702;50.898;4.662;2023-04-07T07:49:42;10.10;99.90
29803;DHT22;16702;50.898;4.662;2023-04-07T07:52:15;10.10;99.90
29803;DHT22;16702;50.898;4.662;2023-04-07T07:54:47;10.10;99.90
29803;DHT22;16702;50.898;4.662;2023-04-07T07:57:18;10.10;99.90
29803;DHT22;16702;50.898;4.662;2023-04-07T07:59:48;10.10;99.90
29803;DHT22;16702;50.898;4.662;2023-04-07T08:02:19;10.20;99.90
29803;DHT22;16702;50.898;4.662;2023-04-07T08:04:52;10.20;99.90
29803;DHT22;16702;50.898;4.662;2023-04-07T08:07:26;10.20;99.90
29803;DHT22;16702;50.898;4.662;2023-04-07T08:09:56;10.20;99.90
29803;DHT22;16702;50.898;4.662;2023-04-07T08:12:26;10.30;99.90
29803;DHT22;16702;50.898;4.662;2023-04-07T08:14:57;10.30;99.90
29803;DHT22;16702;50.898;4.662;2023-04-07T08:17:28;10.30;99.90
29803;DHT22;16702;50.898;4.662;2023-04-07T08:19:59;10.30;99.90
29803;DHT22;16702;50.898;4.662;2023-04-07T08:22:33;10.30;99.90
29803;DHT22;16702;50.898;4.662;2023-04-07T08:25:05;10.20;99.90
29803;DHT22;16702;50.898;4.662;2023-04-07T08:27:35;10.10;99.90
29803;DHT22;16702;50.898;4.662;2023-04-07T08:30:06;10.20;99.90
29803;DHT22;16702;50.898;4.662;2023-04-07T08:32:41;10.20;99.90
29803;DHT22;16702;50.898;4.662;2023-04-07T08:35:12;10.20;99.90
29803;DHT22;16702;50.898;4.662;2023-04-07T08:37:45;10.20;99.90
29803;DHT22;16702;50.898;4.662;2023-04-07T08:40:16;10.30;99.90
29803;DHT22;16702;50.898;4.662;2023-04-07T08:42:47;10.30;99.90
29803;DHT22;16702;50.898;4.662;2023-04-07T08:45:19;10.30;99.90
29803;DHT22;16702;50.898;4.662;2023-04-07T08:47:51;10.20;99.90
29803;DHT22;16702;50.898;4.662;2023-04-07T08:50:25;10.40;99.90
29803;DHT22;16702;50.898;4.662;2023-04-07T08:53:00;10.40;99.90
29803;DHT22;16702;50.898;4.662;2023-04-07T08:55:34;10.50;99.90
29803;DHT22;16702;50.898;4.662;2023-04-07T08:58:05;10.50;99.90
29803;DHT22;16702;50.898;4.662;2023-04-07T09:00:39;10.50;99.90
29803;DHT22;16702;50.898;4.662;2023-04-07T09:03:12;10.60;99.90
29803;DHT22;16702;50.898;4.662;2023-04-07T09:05:43;10.60;99.90
29803;DHT22;16702;50.898;4.662;2023-04-07T09:08:17;10.60;99.90
29803;DHT22;16702;50.898;4.662;2023-04-07T09:10:47;10.60;99.90
29803;DHT22;16702;50.898;4.662;2023-04-07T09:13:17;10.60;99.90
29803;DHT22;16702;50.898;4.662;2023-04-07T09:15:48;10.60;99.90
29803;DHT22;16702;50.898;4.662;2023-04-07T09:18:18;10.60;99.90
29803;DHT22;16702;50.898;4.662;2023-04-07T09:20:56;10.60;99.90
29803;DHT22;16702;50.898;4.662;2023-04-07T09:23:31;10.60;99.90
29803;DHT22;16702;50.898;4.662;2023-04-07T09:26:18;10.50;99.90
29803;DHT22;16702;50.898;4.662;2023-04-07T09:28:51;10.60;99.90
29803;DHT22;16702;50.898;4.662;2023-04-07T09:31:22;10.70;99.90
29803;DHT22;16702;50.898;4.662;2023-04-07T09:33:54;10.70;99.90
29803;DHT22;16702;50.898;4.662;2023-04-07T09:36:28;10.70;99.90
29803;DHT22;16702;50.898;4.662;2023-04-07T09:39:12;10.70;99.90
29803;DHT22;16702;50.898;4.662;2023-04-07T09:41:43;11.00;99.90
29803;DHT22;16702;50.898;4.662;2023-04-07T09:44:13;11.10;99.90
29803;DHT22;16702;50.898;4.662;2023-04-07T09:46:51;11.20;99.90
29803;DHT22;16702;50.898;4.662;2023-04-07T09:49:23;11.20;99.90
29803;DHT22;16702;50.898;4.662;2023-04-07T09:51:56;11.20;99.90
29803;DHT22;16702;50.898;4.662;2023-04-07T09:54:34;11.30;99.90
29803;DHT22;16702;50.898;4.662;2023-04-07T09:57:07;11.30;99.90
29803;DHT22;16702;50.898;4.662;2023-04-07T09:59:39;11.20;99.90
29803;DHT22;16702;50.898;4.662;2023-04-07T10:02:11;11.40;99.90
29803;DHT22;16702;50.898;4.662;2023-04-07T10:04:41;11.30;99.90
29803;DHT22;16702;50.898;4.662;2023-04-07T10:07:12;11.30;99.90
29803;DHT22;16702;50.898;4.662;2023-04-07T10:09:46;11.40;99.90
29803;DHT22;16702;50.898;4.662;2023-04-07T10:12:17;11.50;99.90
29803;DHT22;16702;50.898;4.662;2023-04-07T10:14:49;11.60;99.90
29803;DHT22;16702;50.898;4.662;2023-04-07T10:17:21;11.60;99.90
29803;DHT22;16702;50.898;4.662;2023-04-07T10:19:52;11.50;99.90
29803;DHT22;16702;50.898;4.662;2023-04-07T10:22:24;11.40;99.90
29803;DHT22;16702;50.898;4.662;2023-04-07T10:24:59;11.60;99.90
29803;DHT22;16702;50.898;4.662;2023-04-07T10:27:34;11.60;99.90
29803;DHT22;16702;50.898;4.662;2023-04-07T10:30:12;11.60;99.90
29803;DHT22;16702;50.898;4.662;2023-04-07T10:32:46;11.60;99.90
29803;DHT22;16702;50.898;4.662;2023-04-07T10:35:18;11.50;99.90
29803;DHT22;16702;50.898;4.662;2023-04-07T10:38:11;11.60;99.90
29803;DHT22;16702;50.898;4.662;2023-04-07T10:40:45;11.60;99.90
29803;DHT22;16702;50.898;4.662;2023-04-07T10:43:36;11.50;99.90
29803;DHT22;16702;50.898;4.662;2023-04-07T10:46:08;11.50;99.90
29803;DHT22;16702;50.898;4.662;2023-04-07T10:48:38;11.50;99.90
29803;DHT22;16702;50.898;4.662;2023-04-07T10:51:18;11.40;99.90
29803;DHT22;16702;50.898;4.662;2023-04-07T10:57:07;11.40;99.90
29803;DHT22;16702;50.898;4.662;2023-04-07T10:59:40;11.30;99.90
29803;DHT22;16702;50.898;4.662;2023-04-07T11:02:31;11.30;99.90
29803;DHT22;16702;50.898;4.662;2023-04-07T11:05:03;11.40;99.90
29803;DHT22;16702;50.898;4.662;2023-04-07T11:07:48;11.30;99.90
29803;DHT22;16702;50.898;4.662;2023-04-07T11:10:20;11.30;99.90
29803;DHT22;16702;50.898;4.662;2023-04-07T11:13:01;11.40;99.90
29803;DHT22;16702;50.898;4.662;2023-04-07T11:15:33;11.40;99.90
29803;DHT22;16702;50.898;4.662;2023-04-07T11:18:14;11.50;99.90
29803;DHT22;16702;50.898;4.662;2023-04-07T11:20:46;11.50;99.90
29803;DHT22;16702;50.898;4.662;2023-04-07T11:23:18;11.60;99.90
29803;DHT22;16702;50.898;4.662;2023-04-07T11:25:51;11.60;99.90
29803;DHT22;16702;50.898;4.662;2023-04-07T11:28:25;11.70;99.90
29803;DHT22;16702;50.898;4.662;2023-04-07T11:30:57;11.70;99.90
29803;DHT22;16702;50.898;4.662;2023-04-07T11:33:29;11.70;99.90
29803;DHT22;16702;50.898;4.662;2023-04-07T11:36:02;11.80;99.90
29803;DHT22;16702;50.898;4.662;2023-04-07T11:38:35;11.70;99.90
29803;DHT22;16702;50.898;4.662;2023-04-07T11:41:11;11.70;99.90
29803;DHT22;16702;50.898;4.662;2023-04-07T11:43:44;11.70;99.90
29803;DHT22;16702;50.898;4.662;2023-04-07T11:46:16;11.60;99.90
29803;DHT22;16702;50.898;4.662;2023-04-07T11:48:47;11.70;99.90
29803;DHT22;16702;50.898;4.662;2023-04-07T11:51:19;11.70;99.90
29803;DHT22;16702;50.898;4.662;2023-04-07T11:53:54;11.70;99.90
29803;DHT22;16702;50.898;4.662;2023-04-07T11:56:26;11.70;99.90
29803;DHT22;16702;50.898;4.662;2023-04-07T11:58:59;11.80;99.90
29803;DHT22;16702;50.898;4.662;2023-04-07T12:01:38;11.70;99.90
29803;DHT22;16702;50.898;4.662;2023-04-07T12:04:12;11.80;99.90
29803;DHT22;16702;50.898;4.662;2023-04-07T12:06:45;11.90;99.90
29803;DHT22;16702;50.898;4.662;2023-04-07T12:09:27;12.00;99.90
29803;DHT22;16702;50.898;4.662;2023-04-07T12:11:58;12.00;99.90
29803;DHT22;16702;50.898;4.662;2023-04-07T12:14:32;11.90;99.90
29803;DHT22;16702;50.898;4.662;2023-04-07T12:17:02;11.90;99.90
29803;DHT22;16702;50.898;4.662;2023-04-07T12:19:34;11.80;99.90
29803;DHT22;16702;50.898;4.662;2023-04-07T12:22:06;11.70;99.90
29803;DHT22;16702;50.898;4.662;2023-04-07T12:24:37;11.80;99.90
29803;DHT22;16702;50.898;4.662;2023-04-07T12:27:08;11.70;99.90
29803;DHT22;16702;50.898;4.662;2023-04-07T12:29:41;11.60;99.90
29803;DHT22;16702;50.898;4.662;2023-04-07T12:32:11;11.70;99.90
29803;DHT22;16702;50.898;4.662;2023-04-07T12:34:42;11.80;99.90
29803;DHT22;16702;50.898;4.662;2023-04-07T12:37:14;11.80;99.90
29803;DHT22;16702;50.898;4.662;2023-04-07T12:39:44;11.80;99.90
29803;DHT22;16702;50.898;4.662;2023-04-07T12:42:15;11.80;99.90
29803;DHT22;16702;50.898;4.662;2023-04-07T12:44:48;11.80;99.90
29803;DHT22;16702;50.898;4.662;2023-04-07T12:47:19;11.90;99.90
29803;DHT22;16702;50.898;4.662;2023-04-07T12:49:50;11.90;99.90
29803;DHT22;16702;50.898;4.662;2023-04-07T12:52:20;11.90;99.90
29803;DHT22;16702;50.898;4.662;2023-04-07T12:54:50;11.90;99.90
29803;DHT22;16702;50.898;4.662;2023-04-07T12:57:21;12.00;99.90
29803;DHT22;16702;50.898;4.662;2023-04-07T12:59:54;11.90;99.90
29803;DHT22;16702;50.898;4.662;2023-04-07T13:02:25;11.90;99.90
29803;DHT22;16702;50.898;4.662;2023-04-07T13:04:56;12.00;99.90
29803;DHT22;16702;50.898;4.662;2023-04-07T13:07:26;12.10;99.90
29803;DHT22;16702;50.898;4.662;2023-04-07T13:09:57;12.10;99.90
29803;DHT22;16702;50.898;4.662;2023-04-07T13:12:27;12.20;99.90
29803;DHT22;16702;50.898;4.662;2023-04-07T13:15:00;12.30;99.90
29803;DHT22;16702;50.898;4.662;2023-04-07T13:17:31;12.20;99.90
29803;DHT22;16702;50.898;4.662;2023-04-07T13:20:03;12.20;99.90
29803;DHT22;16702;50.898;4.662;2023-04-07T13:22:34;12.30;99.90
29803;DHT22;16702;50.898;4.662;2023-04-07T13:25:15;12.40;99.90
29803;DHT22;16702;50.898;4.662;2023-04-07T13:27:45;12.40;99.90
29803;DHT22;16702;50.898;4.662;2023-04-07T13:30:18;12.40;99.90
29803;DHT22;16702;50.898;4.662;2023-04-07T13:32:49;12.20;99.90
29803;DHT22;16702;50.898;4.662;2023-04-07T13:35:19;12.10;99.90
29803;DHT22;16702;50.898;4.662;2023-04-07T13:37:50;12.10;99.90
29803;DHT22;16702;50.898;4.662;2023-04-07T13:40:20;12.00;99.90
29803;DHT22;16702;50.898;4.662;2023-04-07T13:42:50;12.00;99.90
29803;DHT22;16702;50.898;4.662;2023-04-07T13:45:23;12.00;99.90
29803;DHT22;16702;50.898;4.662;2023-04-07T13:47:54;11.90;99.90
29803;DHT22;16702;50.898;4.662;2023-04-07T13:50:25;11.90;99.90
29803;DHT22;16702;50.898;4.662;2023-04-07T13:52:55;11.80;99.90
29803;DHT22;16702;50.898;4.662;2023-04-07T13:55:25;11.80;99.90
29803;DHT22;16702;50.898;4.662;2023-04-07T13:57:56;11.90;99.90
29803;DHT22;16702;50.898;4.662;2023-04-07T14:00:29;11.80;99.90
29803;DHT22;16702;50.898;4.662;2023-04-07T14:03:02;11.80;99.90
29803;DHT22;16702;50.898;4.662;2023-04-07T14:05:32;11.80;99.90
29803;DHT22;16702;50.898;4.662;2023-04-07T14:08:03;11.80;99.90
29803;DHT22;16702;50.898;4.662;2023-04-07T14:10:33;11.80;99.90
29803;DHT22;16702;50.898;4.662;2023-04-07T14:13:04;11.80;99.90
29803;DHT22;16702;50.898;4.662;2023-04-07T14:15:37;11.80;99.90
29803;DHT22;16702;50.898;4.662;2023-04-07T14:18:07;11.80;99.90
29803;DHT22;16702;50.898;4.662;2023-04-07T14:20:38;11.80;99.90
29803;DHT22;16702;50.898;4.662;2023-04-07T14:23:09;11.70;99.90
29803;DHT22;16702;50.898;4.662;2023-04-07T14:25:46;11.70;99.90
29803;DHT22;16702;50.898;4.662;2023-04-07T14:28:17;11.70;99.90
29803;DHT22;16702;50.898;4.662;2023-04-07T14:30:50;11.80;99.90
29803;DHT22;16702;50.898;4.662;2023-04-07T14:33:20;11.80;99.90
29803;DHT22;16702;50.898;4.662;2023-04-07T14:35:51;11.70;99.90
29803;DHT22;16702;50.898;4.662;2023-04-07T14:38:21;11.70;99.90
29803;DHT22;16702;50.898;4.662;2023-04-07T14:40:52;11.70;99.90
29803;DHT22;16702;50.898;4.662;2023-04-07T14:43:36;11.70;99.90
29803;DHT22;16702;50.898;4.662;2023-04-07T14:46:10;11.80;99.90
29803;DHT22;16702;50.898;4.662;2023-04-07T14:48:41;11.60;99.90
29803;DHT22;16702;50.898;4.662;2023-04-07T14:51:12;11.60;99.90
29803;DHT22;16702;50.898;4.662;2023-04-07T14:53:43;11.60;99.90
29803;DHT22;16702;50.898;4.662;2023-04-07T14:56:14;11.70;99.90
29803;DHT22;16702;50.898;4.662;2023-04-07T14:58:44;11.70;99.90
29803;DHT22;16702;50.898;4.662;2023-04-07T15:01:17;11.70;99.90
29803;DHT22;16702;50.898;4.662;2023-04-07T15:03:49;11.80;99.90
29803;DHT22;16702;50.898;4.662;2023-04-07T15:06:21;11.90;99.90
29803;DHT22;16702;50.898;4.662;2023-04-07T15:08:52;12.00;99.90
29803;DHT22;16702;50.898;4.662;2023-04-07T15:11:23;11.90;99.90
29803;DHT22;16702;50.898;4.662;2023-04-07T15:13:54;12.00;99.90
29803;DHT22;16702;50.898;4.662;2023-04-07T15:16:26;12.00;99.90
29803;DHT22;16702;50.898;4.662;2023-04-07T15:18:58;12.10;99.90
29803;DHT22;16702;50.898;4.662;2023-04-07T15:21:28;12.20;99.90
29803;DHT22;16702;50.898;4.662;2023-04-07T15:23:59;12.00;99.90
29803;DHT22;16702;50.898;4.662;2023-04-07T15:26:29;12.00;99.90
29803;DHT22;16702;50.898;4.662;2023-04-07T15:29:00;12.30;99.90
29803;DHT22;16702;50.898;4.662;2023-04-07T15:31:33;12.50;99.90
29803;DHT22;16702;50.898;4.662;2023-04-07T15:34:03;12.70;99.90
29803;DHT22;16702;50.898;4.662;2023-04-07T15:36:34;12.70;99.90
29803;DHT22;16702;50.898;4.662;2023-04-07T15:39:05;12.80;99.90
29803;DHT22;16702;50.898;4.662;2023-04-07T15:41:35;12.90;99.90
29803;DHT22;16702;50.898;4.662;2023-04-07T15:44:06;12.80;99.90
29803;DHT22;16702;50.898;4.662;2023-04-07T15:46:39;12.70;99.90
29803;DHT22;16702;50.898;4.662;2023-04-07T15:49:09;12.60;99.90
29803;DHT22;16702;50.898;4.662;2023-04-07T15:51:40;12.70;99.90
29803;DHT22;16702;50.898;4.662;2023-04-07T15:54:10;12.80;99.90
29803;DHT22;16702;50.898;4.662;2023-04-07T15:56:41;12.80;99.90
29803;DHT22;16702;50.898;4.662;2023-04-07T15:59:11;12.60;99.90
29803;DHT22;16702;50.898;4.662;2023-04-07T16:01:44;12.60;99.90
29803;DHT22;16702;50.898;4.662;2023-04-07T16:04:15;12.50;99.90
29803;DHT22;16702;50.898;4.662;2023-04-07T16:06:45;12.40;99.90
29803;DHT22;16702;50.898;4.662;2023-04-07T16:09:16;12.50;99.90
29803;DHT22;16702;50.898;4.662;2023-04-07T16:11:46;12.40;99.90